createdAt,value
2023-07-30T00:00:52.376Z,90.48
2023-07-30T00:03:20.397Z,91.49
2023-07-30T00:05:54.948Z,90.23
2023-07-30T00:08:25.145Z,89.92
2023-07-30T00:10:52.915Z,91.50
2023-07-30T00:13:20.675Z,91.21
2023-07-30T00:15:48.753Z,90.36
2023-07-30T00:18:16.638Z,90.17
2023-07-30T00:20:44.908Z,90.37
2023-07-30T00:23:12.665Z,89.43
2023-07-30T00:25:41.755Z,90.00
2023-07-30T00:28:09.523Z,89.98
2023-07-30T00:30:37.351Z,87.35
2023-07-30T00:33:05.172Z,89.03
2023-07-30T00:35:32.927Z,91.79
2023-07-30T00:38:00.705Z,90.91
2023-07-30T00:40:28.498Z,90.44
2023-07-30T00:42:57.635Z,92.32
2023-07-30T00:45:25.518Z,90.31
2023-07-30T00:47:53.357Z,89.97
2023-07-30T00:50:21.210Z,90.29
2023-07-30T00:52:49.244Z,90.25
2023-07-30T00:55:17.380Z,90.36
2023-07-30T00:57:45.323Z,90.16
2023-07-30T01:00:15.471Z,91.01
2023-07-30T01:02:43.272Z,91.13
2023-07-30T01:05:11.602Z,89.18
2023-07-30T01:07:39.322Z,88.81
2023-07-30T01:10:08.316Z,88.65
2023-07-30T01:12:38.009Z,87.89
2023-07-30T01:15:07.820Z,88.80
2023-07-30T01:17:37.616Z,88.96
2023-07-30T01:20:06.319Z,88.63
2023-07-30T01:22:35.473Z,88.31
2023-07-30T01:25:03.441Z,89.02
2023-07-30T01:27:33.556Z,90.03
2023-07-30T01:30:08.583Z,90.55
2023-07-30T01:32:37.109Z,90.49
2023-07-30T01:35:07.532Z,91.01
2023-07-30T01:37:38.878Z,90.61
2023-07-30T01:40:08.356Z,90.80
2023-07-30T01:42:36.166Z,89.97
2023-07-30T01:45:03.988Z,89.63
2023-07-30T01:47:31.709Z,90.08
2023-07-30T01:49:59.585Z,92.13
2023-07-30T01:52:27.436Z,92.18
2023-07-30T01:54:57.140Z,90.02
2023-07-30T01:57:25.206Z,89.67
2023-07-30T01:59:52.965Z,89.84
2023-07-30T02:02:20.775Z,91.44
2023-07-30T02:04:48.681Z,90.69
2023-07-30T02:07:16.417Z,90.73
2023-07-30T02:09:45.246Z,91.77
2023-07-30T02:12:14.405Z,90.84
2023-07-30T02:14:42.115Z,91.45
2023-07-30T02:17:09.887Z,89.43
2023-07-30T02:19:37.656Z,90.89
2023-07-30T02:22:05.957Z,92.10
2023-07-30T02:24:33.726Z,93.34
2023-07-30T02:27:01.554Z,90.45
2023-07-30T02:29:32.373Z,92.17
2023-07-30T02:32:01.244Z,90.46
2023-07-30T02:34:29.192Z,91.17
2023-07-30T02:36:56.974Z,91.27
2023-07-30T02:39:24.728Z,89.78
2023-07-30T02:41:52.522Z,89.55
2023-07-30T02:44:20.297Z,91.49
2023-07-30T02:46:49.389Z,90.14
2023-07-30T02:49:17.197Z,89.03
2023-07-30T02:51:49.554Z,89.59
2023-07-30T02:54:18.160Z,90.29
2023-07-30T02:56:46.576Z,88.70
2023-07-30T02:59:14.352Z,90.34
2023-07-30T03:01:42.380Z,89.50
2023-07-30T03:04:11.615Z,89.07
2023-07-30T03:06:39.376Z,91.06
2023-07-30T03:09:07.170Z,90.08
2023-07-30T03:11:34.961Z,91.31
2023-07-30T03:14:02.781Z,93.56
2023-07-30T03:16:30.566Z,90.86
2023-07-30T03:18:58.354Z,90.19
2023-07-30T03:21:27.448Z,89.04
2023-07-30T03:23:55.207Z,89.48
2023-07-30T03:26:22.895Z,88.72
2023-07-30T03:28:50.702Z,89.25
2023-07-30T03:31:18.504Z,88.79
2023-07-30T03:33:47.172Z,89.54
2023-07-30T03:36:15.708Z,90.38
2023-07-30T03:38:45.175Z,90.45
2023-07-30T03:41:13.193Z,92.71
2023-07-30T03:43:41.059Z,92.36
2023-07-30T03:46:08.839Z,91.94
2023-07-30T03:48:36.595Z,91.21
2023-07-30T03:51:04.643Z,91.86
2023-07-30T03:53:32.516Z,89.95
2023-07-30T03:56:01.774Z,89.60
2023-07-30T03:58:31.423Z,88.72
2023-07-30T04:00:59.328Z,89.22
2023-07-30T04:03:27.212Z,89.62
2023-07-30T04:05:55.133Z,88.01
2023-07-30T04:08:23.074Z,89.09
2023-07-30T04:10:50.808Z,89.20
2023-07-30T04:13:20.041Z,91.17
2023-07-30T04:15:49.572Z,88.85
2023-07-30T04:18:17.414Z,88.93
2023-07-30T04:20:45.150Z,89.34
2023-07-30T04:23:13.053Z,87.93
2023-07-30T04:25:40.792Z,86.89
2023-07-30T04:28:08.644Z,87.24
2023-07-30T04:30:37.847Z,89.55
2023-07-30T04:33:05.671Z,88.65
2023-07-30T04:35:33.490Z,89.65
2023-07-30T04:38:01.229Z,86.44
2023-07-30T04:40:29.111Z,81.85
2023-07-30T04:42:56.907Z,85.89
2023-07-30T04:45:24.644Z,87.22
2023-07-30T04:47:53.799Z,86.84
2023-07-30T04:50:21.597Z,87.62
2023-07-30T04:52:49.372Z,87.53
2023-07-30T04:55:17.323Z,86.92
2023-07-30T04:57:45.090Z,88.79
2023-07-30T05:00:14.028Z,86.79
2023-07-30T05:02:41.832Z,90.73
2023-07-30T05:05:11.194Z,90.08
2023-07-30T05:07:40.128Z,89.19
2023-07-30T05:10:11.249Z,88.30
2023-07-30T05:12:39.351Z,89.07
2023-07-30T05:15:07.918Z,90.36
2023-07-30T05:17:36.316Z,91.99
2023-07-30T05:20:04.268Z,91.28
2023-07-30T05:22:33.368Z,91.13
2023-07-30T05:25:01.181Z,90.76
2023-07-30T05:27:30.133Z,91.36
2023-07-30T05:29:57.900Z,92.28
2023-07-30T05:32:25.812Z,91.93
2023-07-30T05:34:53.697Z,90.55
2023-07-30T05:37:21.651Z,92.57
2023-07-30T05:39:50.891Z,91.64
2023-07-30T05:42:18.598Z,91.82
2023-07-30T05:44:46.392Z,91.06
2023-07-30T05:47:14.192Z,91.63
2023-07-30T05:49:42.122Z,92.06
2023-07-30T05:52:09.891Z,90.12
2023-07-30T05:54:37.651Z,90.38
2023-07-30T05:57:07.000Z,92.31
2023-07-30T05:59:34.739Z,90.41
2023-07-30T06:02:04.973Z,89.39
2023-07-30T06:04:32.915Z,89.64
2023-07-30T06:07:01.838Z,89.23
2023-07-30T06:09:29.805Z,88.61
2023-07-30T06:11:59.178Z,88.07
2023-07-30T06:14:28.784Z,87.29
2023-07-30T06:16:57.089Z,87.68
2023-07-30T06:19:24.848Z,88.05
2023-07-30T06:21:52.568Z,88.89
2023-07-30T06:24:20.320Z,88.73
2023-07-30T06:26:48.111Z,86.90
2023-07-30T06:29:15.917Z,87.83
2023-07-30T06:31:45.177Z,87.03
2023-07-30T06:34:13.007Z,86.53
2023-07-30T06:36:40.845Z,87.29
2023-07-30T06:39:08.714Z,86.72
2023-07-30T06:41:37.002Z,87.74
2023-07-30T06:44:05.274Z,86.04
2023-07-30T06:46:33.029Z,84.95
2023-07-30T06:49:02.155Z,84.02
2023-07-30T06:51:30.971Z,86.32
2023-07-30T06:53:58.890Z,85.90
2023-07-30T06:56:26.638Z,87.13
2023-07-30T06:58:54.436Z,88.17
2023-07-30T07:01:22.311Z,88.64
2023-07-30T07:03:50.165Z,87.36
2023-07-30T07:06:19.281Z,87.54
2023-07-30T07:08:47.037Z,88.56
2023-07-30T07:11:14.902Z,87.20
2023-07-30T07:13:42.708Z,89.55
2023-07-30T07:16:10.496Z,86.60
2023-07-30T07:18:38.244Z,87.83
2023-07-30T07:21:06.005Z,87.39
2023-07-30T07:23:35.182Z,88.76
2023-07-30T07:26:02.898Z,88.19
2023-07-30T07:28:30.691Z,88.39
2023-07-30T07:30:58.572Z,86.92
2023-07-30T07:33:26.346Z,85.39
2023-07-30T07:35:54.069Z,86.63
2023-07-30T07:38:21.897Z,86.97
2023-07-30T07:40:52.352Z,85.54
2023-07-30T07:43:20.211Z,85.10
2023-07-30T07:45:47.955Z,85.66
2023-07-30T07:48:15.710Z,82.84
2023-07-30T07:50:43.490Z,82.55
2023-07-30T07:53:11.370Z,81.55
2023-07-30T07:55:39.123Z,83.48
2023-07-30T07:58:08.231Z,83.35
2023-07-30T08:00:36.024Z,82.38
2023-07-30T08:03:03.806Z,81.42
2023-07-30T08:05:31.827Z,81.15
2023-07-30T08:07:59.740Z,79.88
2023-07-30T08:10:27.567Z,78.81
2023-07-30T08:12:55.332Z,78.41
2023-07-30T08:15:24.564Z,78.54
2023-07-30T08:17:52.361Z,76.70
2023-07-30T08:20:20.180Z,76.00
2023-07-30T08:22:47.998Z,76.04
2023-07-30T08:25:15.838Z,76.67
2023-07-30T08:27:43.639Z,75.54
2023-07-30T08:30:12.494Z,73.85
2023-07-30T08:32:42.734Z,73.85
2023-07-30T08:35:11.342Z,73.58
2023-07-30T08:37:39.387Z,74.24
2023-07-30T08:40:08.421Z,74.13
2023-07-30T08:42:36.245Z,76.17
2023-07-30T08:45:08.077Z,73.48
2023-07-30T08:47:36.439Z,72.15
2023-07-30T08:50:06.354Z,72.91
2023-07-30T08:52:35.792Z,70.60
2023-07-30T08:55:04.845Z,68.88
2023-07-30T08:57:33.155Z,68.49
2023-07-30T09:00:04.813Z,69.34
2023-07-30T09:02:36.959Z,71.63
2023-07-30T09:05:07.365Z,71.66
2023-07-30T09:07:35.146Z,71.41
2023-07-30T09:10:03.139Z,69.96
2023-07-30T09:12:34.770Z,71.47
2023-07-30T09:15:03.914Z,70.95
2023-07-30T09:17:31.655Z,70.92
2023-07-30T09:20:01.338Z,70.42
2023-07-30T09:22:34.464Z,70.57
2023-07-30T09:25:04.948Z,70.14
2023-07-30T09:27:34.312Z,69.31
2023-07-30T09:30:03.640Z,71.28
2023-07-30T09:32:33.460Z,69.66
2023-07-30T09:35:07.559Z,70.03
2023-07-30T09:37:39.777Z,69.36
2023-07-30T09:40:09.096Z,67.91
2023-07-30T09:42:40.607Z,68.81
2023-07-30T09:45:10.269Z,69.60
2023-07-30T09:47:39.571Z,68.58
2023-07-30T09:50:09.100Z,68.69
2023-07-30T09:52:38.296Z,65.93
2023-07-30T09:55:09.192Z,67.78
2023-07-30T09:57:37.320Z,67.82
2023-07-30T10:00:06.650Z,66.44
2023-07-30T10:02:36.156Z,66.00
2023-07-30T10:05:10.130Z,65.62
2023-07-30T10:07:43.929Z,65.15
2023-07-30T10:10:13.380Z,67.28
2023-07-30T10:12:43.209Z,64.57
2023-07-30T10:15:11.501Z,65.02
2023-07-30T10:17:39.438Z,64.11
2023-07-30T10:20:22.945Z,63.27
2023-07-30T10:22:55.693Z,63.56
2023-07-30T10:25:24.688Z,63.61
2023-07-30T10:27:53.452Z,64.54
2023-07-30T10:30:22.388Z,63.66
2023-07-30T10:33:06.589Z,64.84
2023-07-30T10:35:38.960Z,64.78
2023-07-30T10:38:19.006Z,62.91
2023-07-30T10:41:02.696Z,61.66
2023-07-30T10:43:31.524Z,64.28
2023-07-30T10:45:59.440Z,63.06
2023-07-30T10:48:37.241Z,62.23
2023-07-30T10:51:06.573Z,63.49
2023-07-30T10:53:37.028Z,63.60
2023-07-30T10:56:05.777Z,61.56
2023-07-30T10:58:35.079Z,61.51
2023-07-30T11:01:04.788Z,60.84
2023-07-30T11:03:33.809Z,61.54
2023-07-30T11:06:02.384Z,62.20
2023-07-30T11:08:39.677Z,60.85
2023-07-30T11:11:09.309Z,61.66
2023-07-30T11:13:38.781Z,62.36
2023-07-30T11:16:07.790Z,61.96
2023-07-30T11:18:36.622Z,61.05
2023-07-30T11:21:05.569Z,59.50
2023-07-30T11:23:33.405Z,59.53
2023-07-30T11:26:03.248Z,59.31
2023-07-30T11:28:33.764Z,57.30
2023-07-30T11:31:05.662Z,58.18
2023-07-30T11:33:33.979Z,59.01
2023-07-30T11:36:03.718Z,56.76
2023-07-30T11:38:32.793Z,57.12
2023-07-30T11:41:02.752Z,58.33
2023-07-30T11:43:31.220Z,58.25
2023-07-30T11:46:10.108Z,57.61
2023-07-30T11:48:37.937Z,59.44
2023-07-30T11:51:05.881Z,57.98
2023-07-30T11:53:50.818Z,59.41
2023-07-30T11:56:25.207Z,59.08
2023-07-30T11:58:55.854Z,58.78
2023-07-30T12:01:26.051Z,59.37
2023-07-30T12:03:56.722Z,59.28
2023-07-30T12:06:24.573Z,58.41
2023-07-30T12:08:52.872Z,56.07
2023-07-30T12:11:22.002Z,57.40
2023-07-30T12:13:51.614Z,57.57
2023-07-30T12:16:22.049Z,59.00
2023-07-30T12:18:50.358Z,59.40
2023-07-30T12:21:18.074Z,57.84
2023-07-30T12:23:45.822Z,59.09
2023-07-30T12:26:13.562Z,59.25
2023-07-30T12:28:41.323Z,58.55
2023-07-30T12:31:10.426Z,60.47
2023-07-30T12:33:38.701Z,60.90
2023-07-30T12:36:06.961Z,59.62
2023-07-30T12:38:35.510Z,59.95
2023-07-30T12:41:03.271Z,60.32
2023-07-30T12:43:31.075Z,59.85
2023-07-30T12:45:58.969Z,61.57
2023-07-30T12:48:28.165Z,60.64
2023-07-30T12:50:57.223Z,61.38
2023-07-30T12:53:26.713Z,60.71
2023-07-30T12:55:54.609Z,60.34
2023-07-30T12:58:22.372Z,59.23
2023-07-30T13:00:50.140Z,60.13
2023-07-30T13:03:18.028Z,61.80
2023-07-30T13:05:47.232Z,61.34
2023-07-30T13:08:14.979Z,63.13
2023-07-30T13:10:43.283Z,62.66
2023-07-30T13:13:10.992Z,63.36
2023-07-30T13:15:38.734Z,65.55
2023-07-30T13:18:06.557Z,65.56
2023-07-30T13:20:34.307Z,66.47
2023-07-30T13:23:03.562Z,66.20
2023-07-30T13:25:31.336Z,64.44
2023-07-30T13:27:59.254Z,65.67
2023-07-30T13:30:27.260Z,66.52
2023-07-30T13:32:55.086Z,66.04
2023-07-30T13:35:22.924Z,65.26
2023-07-30T13:37:50.640Z,65.46
2023-07-30T13:40:19.886Z,64.87
2023-07-30T13:42:47.644Z,66.78
2023-07-30T13:45:15.419Z,64.52
2023-07-30T13:47:43.256Z,65.15
2023-07-30T13:50:11.700Z,62.86
2023-07-30T13:52:39.442Z,62.03
2023-07-30T13:55:07.922Z,61.00
2023-07-30T13:57:37.126Z,58.63
2023-07-30T14:00:05.618Z,58.02
2023-07-30T14:02:33.499Z,60.59
2023-07-30T14:05:01.528Z,59.93
2023-07-30T14:07:29.282Z,58.97
2023-07-30T14:09:57.048Z,58.91
2023-07-30T14:12:24.839Z,59.66
2023-07-30T14:14:53.963Z,59.24
2023-07-30T14:17:21.998Z,59.82
2023-07-30T14:19:49.789Z,60.23
2023-07-30T14:22:17.474Z,61.22
2023-07-30T14:24:45.968Z,60.79
2023-07-30T14:27:13.862Z,59.97
2023-07-30T14:29:41.608Z,59.64
2023-07-30T14:32:11.076Z,60.14
2023-07-30T14:34:38.815Z,61.14
2023-07-30T14:37:08.775Z,62.40
2023-07-30T14:39:37.846Z,62.98
2023-07-30T14:42:06.101Z,61.89
2023-07-30T14:44:33.814Z,60.71
2023-07-30T14:47:01.591Z,60.85
2023-07-30T14:49:30.806Z,60.76
2023-07-30T14:51:58.557Z,61.15
2023-07-30T14:54:26.310Z,61.44
2023-07-30T14:56:54.506Z,63.26
2023-07-30T14:59:22.216Z,63.68
2023-07-30T15:01:50.053Z,62.32
2023-07-30T15:04:17.823Z,63.99
2023-07-30T15:06:47.206Z,63.86
2023-07-30T15:09:14.973Z,62.68
2023-07-30T15:11:42.734Z,58.47
2023-07-30T15:14:10.514Z,57.42
2023-07-30T15:16:38.554Z,57.23
2023-07-30T15:19:06.575Z,55.39
2023-07-30T15:21:36.467Z,54.74
2023-07-30T15:24:06.236Z,55.94
2023-07-30T15:26:34.055Z,58.50
2023-07-30T15:29:02.920Z,59.09
2023-07-30T15:31:30.881Z,58.93
2023-07-30T15:33:58.633Z,58.47
2023-07-30T15:36:26.407Z,59.10
2023-07-30T15:38:55.752Z,58.39
2023-07-30T15:41:24.894Z,58.24
2023-07-30T15:43:52.712Z,59.31
2023-07-30T15:46:21.826Z,59.77
2023-07-30T15:48:49.616Z,59.95
2023-07-30T15:51:17.521Z,58.16
2023-07-30T15:53:46.419Z,57.50
2023-07-30T15:56:14.166Z,57.26
2023-07-30T15:58:43.293Z,58.68
2023-07-30T16:01:11.600Z,59.74
2023-07-30T16:03:39.707Z,58.93
2023-07-30T16:06:08.532Z,58.78
2023-07-30T16:08:37.580Z,61.03
2023-07-30T16:11:05.668Z,61.14
2023-07-30T16:13:33.691Z,62.93
2023-07-30T16:16:10.907Z,63.26
2023-07-30T16:18:38.661Z,64.78
2023-07-30T16:21:07.664Z,64.44
2023-07-30T16:23:35.453Z,63.51
2023-07-30T16:26:03.442Z,64.32
2023-07-30T16:28:31.464Z,61.53
2023-07-30T16:30:59.329Z,62.60
2023-07-30T16:33:29.267Z,61.82
2023-07-30T16:35:57.080Z,63.28
2023-07-30T16:38:24.914Z,65.13
2023-07-30T16:40:53.929Z,63.20
2023-07-30T16:43:21.820Z,63.96
2023-07-30T16:45:49.787Z,62.65
2023-07-30T16:48:18.188Z,61.31
2023-07-30T16:50:50.425Z,62.96
2023-07-30T16:53:18.162Z,65.61
2023-07-30T16:55:45.945Z,63.96
2023-07-30T16:58:13.749Z,63.26
2023-07-30T17:00:41.563Z,62.52
2023-07-30T17:03:09.577Z,63.30
2023-07-30T17:05:37.438Z,65.26
2023-07-30T17:08:07.761Z,64.20
2023-07-30T17:10:37.590Z,64.31
2023-07-30T17:13:05.548Z,63.85
2023-07-30T17:15:33.423Z,63.65
2023-07-30T17:18:01.215Z,62.34
2023-07-30T17:20:29.055Z,62.97
2023-07-30T17:22:56.801Z,63.99
2023-07-30T17:25:25.910Z,64.74
2023-07-30T17:27:53.677Z,64.72
2023-07-30T17:30:21.600Z,63.74
2023-07-30T17:32:49.556Z,64.95
2023-07-30T17:35:17.365Z,63.20
2023-07-30T17:37:45.180Z,62.79
2023-07-30T17:40:13.334Z,63.91
2023-07-30T17:42:42.412Z,64.67
2023-07-30T17:45:10.998Z,63.72
2023-07-30T17:47:38.758Z,61.84
2023-07-30T17:50:07.218Z,61.96
2023-07-30T17:52:35.037Z,61.63
2023-07-30T17:55:02.848Z,61.65
2023-07-30T17:57:30.557Z,62.25
2023-07-30T17:59:59.851Z,62.81
2023-07-30T18:02:28.413Z,62.71
2023-07-30T18:04:56.744Z,62.36
2023-07-30T18:07:24.603Z,63.36
2023-07-30T18:09:53.057Z,64.65
2023-07-30T18:12:20.883Z,63.77
2023-07-30T18:14:48.716Z,64.45
2023-07-30T18:17:17.809Z,64.09
2023-07-30T18:19:45.862Z,63.71
2023-07-30T18:22:13.641Z,63.45
2023-07-30T18:24:41.411Z,63.92
2023-07-30T18:27:09.173Z,62.91
2023-07-30T18:29:36.962Z,63.20
2023-07-30T18:32:08.291Z,63.42
2023-07-30T18:34:38.280Z,63.35
2023-07-30T18:37:06.633Z,63.95
2023-07-30T18:39:35.478Z,63.80
2023-07-30T18:42:03.361Z,64.06
2023-07-30T18:44:31.364Z,63.88
2023-07-30T18:47:01.740Z,62.73
2023-07-30T18:49:29.857Z,62.75
2023-07-30T18:51:58.962Z,62.26
2023-07-30T18:54:26.659Z,63.83
2023-07-30T18:56:54.599Z,63.94
2023-07-30T18:59:22.311Z,65.30
2023-07-30T19:01:50.097Z,65.24
2023-07-30T19:04:17.856Z,63.53
2023-07-30T19:06:45.591Z,64.31
2023-07-30T19:09:14.673Z,63.75
2023-07-30T19:11:42.485Z,65.04
2023-07-30T19:14:10.495Z,66.12
2023-07-30T19:16:38.569Z,65.37
2023-07-30T19:19:06.503Z,65.78
2023-07-30T19:21:34.304Z,65.71
2023-07-30T19:24:02.092Z,65.71
2023-07-30T19:26:31.212Z,64.92
2023-07-30T19:28:59.144Z,64.16
2023-07-30T19:31:26.965Z,64.66
2023-07-30T19:33:54.683Z,64.61
2023-07-30T19:36:22.448Z,64.29
2023-07-30T19:38:50.176Z,65.50
2023-07-30T19:41:27.482Z,64.12
2023-07-30T19:43:57.289Z,64.92
2023-07-30T19:46:25.139Z,64.54
2023-07-30T19:48:53.243Z,64.44
2023-07-30T19:51:21.479Z,65.28
2023-07-30T19:53:49.232Z,67.27
2023-07-30T19:56:17.063Z,67.22
2023-07-30T19:58:45.050Z,67.08
2023-07-30T20:01:14.235Z,66.78
2023-07-30T20:03:42.005Z,65.94
2023-07-30T20:06:12.428Z,68.87
2023-07-30T20:08:42.187Z,65.22
2023-07-30T20:11:11.508Z,65.22
2023-07-30T20:13:39.291Z,65.33
2023-07-30T20:16:13.077Z,64.96
2023-07-30T20:18:42.258Z,65.26
2023-07-30T20:21:10.464Z,66.66
2023-07-30T20:23:38.832Z,66.23
2023-07-30T20:26:13.189Z,65.51
2023-07-30T20:28:41.721Z,65.57
2023-07-30T20:31:09.608Z,64.62
2023-07-30T20:33:37.729Z,65.46
2023-07-30T20:36:07.221Z,68.47
2023-07-30T20:38:35.001Z,67.14
2023-07-30T20:41:03.360Z,67.34
2023-07-30T20:43:31.274Z,67.93
2023-07-30T20:45:59.080Z,69.71
2023-07-30T20:48:26.852Z,69.05
2023-07-30T20:50:58.498Z,67.95
2023-07-30T20:53:27.605Z,68.65
2023-07-30T20:55:55.400Z,67.93
2023-07-30T20:58:24.002Z,67.09
2023-07-30T21:00:51.786Z,70.03
2023-07-30T21:03:19.901Z,71.36
2023-07-30T21:05:47.844Z,70.63
2023-07-30T21:08:15.603Z,70.97
2023-07-30T21:10:44.732Z,71.96
2023-07-30T21:13:12.475Z,73.73
2023-07-30T21:15:40.269Z,75.17
2023-07-30T21:18:08.021Z,72.47
2023-07-30T21:20:35.773Z,73.97
2023-07-30T21:23:03.822Z,75.35
2023-07-30T21:25:33.493Z,76.08
2023-07-30T21:28:03.127Z,74.09
2023-07-30T21:30:31.086Z,72.99
2023-07-30T21:32:59.327Z,73.41
2023-07-30T21:35:27.231Z,72.47
2023-07-30T21:37:54.997Z,72.51
2023-07-30T21:40:22.724Z,73.38
2023-07-30T21:42:50.796Z,75.08
2023-07-30T21:45:19.967Z,76.30
2023-07-30T21:47:47.812Z,75.57
2023-07-30T21:50:15.802Z,74.24
2023-07-30T21:52:44.025Z,74.93
2023-07-30T21:55:11.792Z,76.27
2023-07-30T21:57:39.600Z,76.26
2023-07-30T22:00:09.861Z,77.53
2023-07-30T22:02:39.074Z,77.03
2023-07-30T22:05:07.748Z,76.02
2023-07-30T22:07:35.503Z,77.68
2023-07-30T22:10:03.274Z,79.60
2023-07-30T22:12:31.056Z,79.75
2023-07-30T22:14:58.836Z,78.14
2023-07-30T22:17:26.642Z,76.67
2023-07-30T22:19:55.747Z,79.78
2023-07-30T22:22:23.510Z,79.64
2023-07-30T22:24:51.392Z,80.44
2023-07-30T22:27:19.201Z,82.59
2023-07-30T22:29:47.130Z,81.84
2023-07-30T22:32:14.855Z,82.46
2023-07-30T22:34:42.592Z,82.59
2023-07-30T22:37:11.804Z,83.58
2023-07-30T22:39:39.551Z,81.10
2023-07-30T22:42:07.664Z,80.08
2023-07-30T22:44:35.603Z,80.48
2023-07-30T22:47:03.324Z,83.12
2023-07-30T22:49:31.119Z,82.92
2023-07-30T22:51:58.880Z,81.26
2023-07-30T22:54:28.034Z,81.96
2023-07-30T22:56:55.856Z,81.92
2023-07-30T22:59:23.725Z,81.92
2023-07-30T23:01:51.438Z,81.20
2023-07-30T23:04:19.223Z,81.80
2023-07-30T23:06:46.957Z,82.81
2023-07-30T23:09:14.753Z,83.27
2023-07-30T23:11:43.933Z,84.93
2023-07-30T23:14:11.811Z,82.06
2023-07-30T23:16:39.781Z,84.14
2023-07-30T23:19:07.852Z,84.29
2023-07-30T23:21:35.834Z,84.35
2023-07-30T23:24:03.656Z,85.13
2023-07-30T23:26:31.607Z,84.21
2023-07-30T23:29:01.051Z,83.79
2023-07-30T23:31:28.856Z,83.44
2023-07-30T23:33:56.648Z,83.14
2023-07-30T23:36:24.460Z,83.13
2023-07-30T23:38:52.487Z,84.22
2023-07-30T23:41:20.221Z,85.46
2023-07-30T23:43:47.951Z,84.25
2023-07-30T23:46:17.338Z,86.61
2023-07-30T23:48:45.232Z,88.11
2023-07-30T23:51:13.077Z,86.38
2023-07-30T23:53:40.839Z,85.36
2023-07-30T23:56:08.619Z,84.83
2023-07-30T23:58:36.347Z,86.15
